Time;durP1;ratioP1;P1;durP2;ratioP2;P2;SDS_P1;SDS_P2;PMS_P1;PMS_P2;Temp;Humidity;BMP_temperature;BMP_pressure;BME280_temperature;BME280_humidity;BME280_pressure;Samples;Min_cycle;Max_cycle;Signal;HPM_P1;HPM_P2
2022/10/04 00:00:40;;;;;;;13.95;8.55;;;12.70;99.90;;;;;;5042650;28;20068;-64
2022/10/04 00:03:17;;;;;;;18.58;9.27;;;12.60;99.90;;;;;;5040627;28;20068;-64
2022/10/04 00:05:49;;;;;;;13.52;8.40;;;12.50;99.90;;;;;;5042387;28;20052;-65
2022/10/04 00:08:41;;;;;;;19.83;8.80;;;12.50;99.90;;;;;;5043123;28;20042;-65
2022/10/04 00:11:16;;;;;;;14.23;8.63;;;12.50;99.90;;;;;;5043346;28;20405;-65
2022/10/04 00:13:48;;;;;;;17.05;9.02;;;12.50;99.90;;;;;;5046010;28;20065;-65
2022/10/04 00:16:30;;;;;;;16.65;9.02;;;12.40;99.90;;;;;;5046976;28;20099;-65
2022/10/04 00:19:14;;;;;;;15.77;9.23;;;12.40;99.90;;;;;;5046119;28;20041;-65
2022/10/04 00:21:55;;;;;;;16.05;9.23;;;12.40;99.90;;;;;;5046023;28;20049;-65
2022/10/04 00:24:28;;;;;;;16.83;8.73;;;12.40;99.90;;;;;;5047185;28;20064;-65
2022/10/04 00:27:19;;;;;;;20.20;9.75;;;12.40;99.90;;;;;;5047512;28;20033;-65
2022/10/04 00:30:22;;;;;;;23.52;8.93;;;12.50;99.90;;;;;;5043209;28;20049;-65
2022/10/04 00:33:01;;;;;;;14.07;9.45;;;12.50;99.90;;;;;;5006553;28;20057;-65
2022/10/04 00:35:27;;;;;;;15.98;8.32;;;12.50;99.90;;;;;;5009282;28;20069;-65
2022/10/04 00:38:05;;;;;;;19.63;9.07;;;12.50;99.90;;;;;;5009696;28;20049;-65
2022/10/04 00:40:45;;;;;;;14.73;8.48;;;12.50;99.90;;;;;;5024457;28;20069;-65
2022/10/04 00:43:28;;;;;;;16.85;9.07;;;12.60;99.90;;;;;;5008938;28;20220;-65
2022/10/04 00:46:00;;;;;;;10.55;8.02;;;12.50;99.90;;;;;;5025243;28;20046;-65
2022/10/04 00:48:29;;;;;;;15.02;8.80;;;12.50;99.90;;;;;;5025151;28;20072;-65
2022/10/04 00:51:19;;;;;;;17.95;9.45;;;12.60;99.90;;;;;;5025559;28;20073;-65
2022/10/04 00:54:03;;;;;;;15.40;8.38;;;12.50;99.90;;;;;;5024894;28;20569;-65
2022/10/04 00:56:37;;;;;;;14.07;7.90;;;12.50;99.90;;;;;;5024864;28;20068;-65
2022/10/04 00:59:32;;;;;;;15.35;7.95;;;12.50;99.90;;;;;;5037470;28;20049;-65
2022/10/04 01:02:02;;;;;;;16.80;9.05;;;12.60;99.90;;;;;;5008610;28;20168;-64
2022/10/04 01:04:48;;;;;;;12.93;8.18;;;12.60;99.90;;;;;;5025792;28;20046;-64
2022/10/04 01:07:21;;;;;;;16.25;9.27;;;12.50;99.90;;;;;;5027138;28;20145;-65
2022/10/04 01:09:55;;;;;;;16.38;8.77;;;12.50;99.90;;;;;;5046557;28;20080;-65
2022/10/04 01:12:32;;;;;;;14.52;8.77;;;12.60;99.90;;;;;;5043546;28;20088;-65
2022/10/04 01:15:13;;;;;;;19.05;8.88;;;12.50;99.90;;;;;;5043863;28;20053;-64
2022/10/04 01:17:39;;;;;;;14.57;8.05;;;12.60;99.90;;;;;;5044371;28;20041;-65
2022/10/04 01:20:30;;;;;;;14.63;7.60;;;12.50;99.90;;;;;;5045005;28;20088;-65
2022/10/04 01:22:56;;;;;;;15.90;8.13;;;12.50;99.90;;;;;;5046379;28;20052;-65
2022/10/04 01:25:42;;;;;;;17.58;7.95;;;12.50;99.90;;;;;;5045041;28;20405;-65
2022/10/04 01:28:09;;;;;;;17.05;8.40;;;12.50;99.90;;;;;;5043946;28;20053;-65
2022/10/04 01:30:34;;;;;;;14.57;8.57;;;12.50;99.90;;;;;;5046091;28;20101;-65
2022/10/04 01:33:00;;;;;;;19.83;8.38;;;12.50;99.90;;;;;;5041556;28;20052;-65
2022/10/04 01:35:27;;;;;;;15.93;8.07;;;12.40;99.90;;;;;;5045653;28;20065;-65
2022/10/04 01:37:54;;;;;;;17.35;8.40;;;12.50;99.90;;;;;;5046015;28;20105;-65
2022/10/04 01:40:20;;;;;;;15.10;8.10;;;12.50;99.90;;;;;;5044128;28;20049;-64
2022/10/04 01:43:00;;;;;;;18.52;8.20;;;12.50;99.90;;;;;;5043088;28;20520;-65
2022/10/04 01:45:39;;;;;;;16.80;7.78;;;12.40;99.90;;;;;;5045679;28;20077;-65
2022/10/04 01:48:11;;;;;;;14.88;7.57;;;12.50;99.90;;;;;;5044840;28;20041;-65
2022/10/04 01:51:03;;;;;;;14.93;8.80;;;12.40;99.90;;;;;;5046268;28;20037;-65
2022/10/04 01:53:33;;;;;;;16.75;8.00;;;12.40;99.90;;;;;;5045068;28;20061;-65
2022/10/04 01:56:29;;;;;;;14.85;8.75;;;12.40;99.90;;;;;;5045929;28;20080;-65
2022/10/04 01:59:00;;;;;;;16.33;8.35;;;12.40;99.90;;;;;;5042767;28;20091;-65
2022/10/04 02:01:43;;;;;;;12.68;7.70;;;12.40;99.90;;;;;;5041235;28;20038;-65
2022/10/04 02:04:20;;;;;;;16.55;8.52;;;12.40;99.90;;;;;;5045771;28;20398;-65
2022/10/04 02:06:51;;;;;;;12.93;7.88;;;12.40;99.90;;;;;;5044857;28;20052;-65
2022/10/04 02:09:25;;;;;;;15.07;8.20;;;12.30;99.90;;;;;;5044351;28;20056;-65
2022/10/04 02:11:52;;;;;;;13.88;8.65;;;12.40;99.90;;;;;;5038830;28;20166;-65
2022/10/04 02:14:24;;;;;;;16.75;9.27;;;12.30;99.90;;;;;;5043137;28;20047;-65
2022/10/04 02:16:52;;;;;;;14.27;9.30;;;12.20;99.90;;;;;;5042303;28;20053;-65
2022/10/04 02:19:30;;;;;;;14.10;8.70;;;12.20;99.90;;;;;;5045145;28;20052;-64
2022/10/04 02:21:56;;;;;;;18.77;9.70;;;12.20;99.90;;;;;;5045088;28;20324;-64
2022/10/04 02:24:22;;;;;;;19.60;8.93;;;12.20;99.90;;;;;;5045372;28;20084;-65
2022/10/04 02:26:51;;;;;;;12.75;9.05;;;12.10;99.90;;;;;;5042420;28;20049;-65
2022/10/04 02:29:21;;;;;;;15.73;10.03;;;12.20;99.90;;;;;;5044808;28;20531;-65
2022/10/04 02:34:35;;;;;;;18.65;10.20;;;12.20;99.90;;;;;;5042429;28;20052;-65
2022/10/04 02:37:03;;;;;;;16.15;10.63;;;12.20;99.90;;;;;;5042997;28;20060;-65
2022/10/04 02:39:37;;;;;;;17.55;9.52;;;12.20;99.90;;;;;;5041771;28;20042;-65
2022/10/04 02:42:31;;;;;;;17.52;10.40;;;12.20;99.90;;;;;;5043473;28;20080;-65
2022/10/04 02:45:20;;;;;;;18.38;10.52;;;12.20;99.90;;;;;;5045446;28;20069;-65
2022/10/04 02:47:55;;;;;;;19.15;10.98;;;12.20;99.90;;;;;;5041038;28;20130;-65
2022/10/04 02:50:48;;;;;;;15.88;9.52;;;12.20;99.90;;;;;;5044715;28;20118;-65
2022/10/04 02:53:39;;;;;;;17.02;10.38;;;12.10;99.90;;;;;;5043164;28;20051;-65
2022/10/04 02:56:08;;;;;;;16.27;9.05;;;12.10;99.90;;;;;;5043099;28;20045;-65
2022/10/04 02:58:37;;;;;;;17.65;9.40;;;12.10;99.90;;;;;;5043960;28;20512;-65
2022/10/04 03:01:03;;;;;;;16.13;9.40;;;12.00;99.90;;;;;;5039621;28;20050;-65
2022/10/04 03:03:30;;;;;;;16.42;9.65;;;12.00;99.90;;;;;;5039204;28;20052;-65
2022/10/04 03:06:08;;;;;;;13.38;9.63;;;12.00;99.90;;;;;;5044037;28;20053;-65
2022/10/04 03:08:43;;;;;;;16.70;10.40;;;12.00;99.90;;;;;;5043736;28;20045;-65
2022/10/04 03:11:11;;;;;;;16.83;9.73;;;12.00;99.90;;;;;;5040552;28;20081;-64
2022/10/04 03:13:40;;;;;;;19.73;10.10;;;11.90;99.90;;;;;;5032880;28;20076;-65
2022/10/04 03:16:07;;;;;;;18.23;10.25;;;12.00;99.90;;;;;;5044200;28;20045;-65
2022/10/04 03:18:34;;;;;;;14.73;9.65;;;12.00;99.90;;;;;;5043495;28;20099;-65
2022/10/04 03:21:02;;;;;;;13.13;9.40;;;12.00;99.90;;;;;;5039532;28;20054;-65
2022/10/04 03:23:30;;;;;;;18.73;8.55;;;12.00;99.90;;;;;;5044596;28;20053;-65
2022/10/04 03:26:02;;;;;;;14.85;8.77;;;12.10;99.90;;;;;;5042581;28;20041;-65
2022/10/04 03:28:28;;;;;;;14.68;8.60;;;12.10;99.90;;;;;;5042988;28;20069;-65
2022/10/04 03:30:56;;;;;;;16.05;8.80;;;12.10;99.90;;;;;;5044226;28;20045;-65
2022/10/04 03:33:25;;;;;;;15.05;8.23;;;12.10;99.90;;;;;;5039374;28;20049;-65
2022/10/04 03:35:53;;;;;;;12.70;8.63;;;12.10;99.90;;;;;;5042106;28;20054;-65
2022/10/04 03:38:21;;;;;;;12.25;7.68;;;12.10;99.90;;;;;;5043877;28;20037;-65
2022/10/04 03:40:52;;;;;;;16.63;8.27;;;12.10;99.90;;;;;;5041924;28;20043;-64
2022/10/04 03:43:21;;;;;;;15.27;8.90;;;12.10;99.90;;;;;;5032977;28;20050;-65
2022/10/04 03:45:48;;;;;;;15.18;8.57;;;12.20;99.90;;;;;;5047563;28;20048;-65
2022/10/04 03:48:21;;;;;;;15.77;8.45;;;12.10;99.90;;;;;;5046648;28;20041;-64
2022/10/04 03:50:48;;;;;;;19.63;9.57;;;12.20;99.90;;;;;;5047003;28;20046;-65
2022/10/04 03:53:29;;;;;;;18.30;9.90;;;12.20;99.90;;;;;;5046459;28;20053;-65
2022/10/04 03:55:56;;;;;;;15.13;9.50;;;12.20;99.90;;;;;;5044325;28;20132;-65
2022/10/04 03:58:24;;;;;;;18.25;10.43;;;12.20;99.90;;;;;;5045305;28;20054;-65
2022/10/04 04:00:55;;;;;;;19.63;10.68;;;12.20;99.90;;;;;;5053491;28;20056;-65
2022/10/04 04:03:22;;;;;;;21.25;11.98;;;12.20;99.90;;;;;;5046688;28;20076;-64
2022/10/04 04:05:56;;;;;;;15.73;10.38;;;12.20;99.90;;;;;;5044415;28;20084;-65
2022/10/04 04:08:35;;;;;;;19.55;10.75;;;12.20;99.90;;;;;;5044193;28;20053;-65
2022/10/04 04:11:03;;;;;;;15.13;11.52;;;12.20;99.90;;;;;;5047202;28;20410;-65
2022/10/04 04:13:55;;;;;;;16.80;11.25;;;12.20;99.90;;;;;;5043338;28;20425;-64
2022/10/04 04:16:26;;;;;;;18.42;12.82;;;12.10;99.90;;;;;;5047370;28;20124;-64
2022/10/04 04:18:53;;;;;;;17.05;11.90;;;12.10;99.90;;;;;;5044632;28;20053;-65
2022/10/04 04:21:23;;;;;;;21.92;12.90;;;12.00;99.90;;;;;;5040189;28;20058;-65
2022/10/04 04:23:56;;;;;;;21.83;12.33;;;12.10;99.90;;;;;;5045295;28;20045;-65
2022/10/04 04:26:45;;;;;;;25.15;13.35;;;12.00;99.90;;;;;;5043322;28;20072;-65
2022/10/04 04:29:49;;;;;;;22.58;13.77;;;11.90;99.90;;;;;;5042508;28;20068;-65
2022/10/04 04:32:24;;;;;;;20.23;13.32;;;11.90;99.90;;;;;;5041078;28;20058;-65
2022/10/04 04:34:52;;;;;;;22.48;12.65;;;11.90;99.90;;;;;;5044114;28;20085;-65
2022/10/04 04:37:19;;;;;;;22.00;13.50;;;11.80;99.90;;;;;;5048186;28;20049;-65
2022/10/04 04:39:50;;;;;;;17.73;12.23;;;11.80;99.90;;;;;;5044910;28;20490;-65
2022/10/04 04:42:22;;;;;;;20.75;13.40;;;11.80;99.90;;;;;;5001553;28;20073;-63
2022/10/04 04:44:49;;;;;;;19.75;12.70;;;11.90;99.90;;;;;;5041045;28;20046;-63
2022/10/04 04:47:33;;;;;;;20.17;12.98;;;11.80;99.90;;;;;;5046345;28;20053;-63
2022/10/04 04:50:19;;;;;;;18.50;12.52;;;11.90;99.90;;;;;;5046783;28;20133;-63
2022/10/04 04:52:51;;;;;;;21.35;13.30;;;11.90;99.90;;;;;;5040919;28;20080;-66
2022/10/04 04:55:21;;;;;;;21.23;13.45;;;11.80;99.90;;;;;;5036385;28;20080;-65
2022/10/04 04:57:54;;;;;;;16.35;12.63;;;11.80;99.90;;;;;;5036462;28;20095;-65
2022/10/04 05:00:27;;;;;;;20.45;13.30;;;11.90;99.90;;;;;;5042849;28;20055;-66
2022/10/04 05:02:55;;;;;;;21.10;13.57;;;11.90;99.90;;;;;;5042877;28;20041;-66
2022/10/04 05:05:23;;;;;;;19.40;13.95;;;11.80;99.90;;;;;;5044232;28;21228;-66
2022/10/04 05:08:22;;;;;;;18.75;13.02;;;11.80;99.90;;;;;;5043761;28;20100;-66
2022/10/04 05:11:01;;;;;;;24.52;13.85;;;11.80;99.90;;;;;;5021933;28;20053;-66
2022/10/04 05:13:40;;;;;;;19.70;14.10;;;11.70;99.90;;;;;;5009395;28;20051;-66
2022/10/04 05:16:13;;;;;;;27.25;14.02;;;11.70;99.90;;;;;;5007645;28;20053;-66
2022/10/04 05:18:38;;;;;;;19.23;13.30;;;11.70;99.90;;;;;;5024548;28;20045;-66
2022/10/04 05:21:12;;;;;;;23.05;13.63;;;11.70;99.90;;;;;;5006532;28;20073;-65
2022/10/04 05:23:37;;;;;;;19.75;13.25;;;11.70;99.90;;;;;;5002186;28;20051;-66
2022/10/04 05:26:08;;;;;;;21.92;13.40;;;11.70;99.90;;;;;;4996706;28;20200;-67
2022/10/04 05:28:34;;;;;;;22.20;14.38;;;11.60;99.90;;;;;;5004988;28;20045;-66
2022/10/04 05:31:08;;;;;;;22.75;13.63;;;11.70;99.90;;;;;;5018737;28;20042;-67
2022/10/04 05:33:56;;;;;;;23.83;14.68;;;11.70;99.90;;;;;;5005406;28;20061;-66
2022/10/04 05:36:47;;;;;;;24.30;13.88;;;11.70;99.90;;;;;;5020795;28;20045;-66
2022/10/04 05:39:28;;;;;;;17.95;13.73;;;11.60;99.90;;;;;;4989175;28;20058;-67
2022/10/04 05:42:12;;;;;;;21.77;14.45;;;11.60;99.90;;;;;;4999371;28;20129;-67
2022/10/04 05:44:53;;;;;;;18.50;13.48;;;11.60;99.90;;;;;;5016385;28;20049;-71
2022/10/04 05:47:22;;;;;;;21.27;15.35;;;11.50;99.90;;;;;;5013807;28;20061;-64
2022/10/04 05:49:51;;;;;;;24.40;15.05;;;11.50;99.90;;;;;;5005084;28;20060;-64
2022/10/04 05:52:29;;;;;;;21.00;13.60;;;11.50;99.90;;;;;;5018119;28;20099;-64
2022/10/04 05:55:14;;;;;;;26.85;15.20;;;11.40;99.90;;;;;;5036635;28;20095;-64
2022/10/04 05:57:49;;;;;;;20.15;14.57;;;11.40;99.90;;;;;;5031452;28;20100;-64
2022/10/04 06:00:47;;;;;;;18.55;13.60;;;11.40;99.90;;;;;;5039071;28;20054;-64
2022/10/04 06:03:45;;;;;;;18.90;13.52;;;11.40;99.90;;;;;;4996289;28;20048;-64
2022/10/04 06:06:23;;;;;;;22.45;13.98;;;11.50;99.90;;;;;;4995173;28;20050;-64
2022/10/04 06:09:15;;;;;;;20.42;15.45;;;11.50;99.90;;;;;;4986812;28;20076;-64
2022/10/04 06:12:09;;;;;;;23.42;15.63;;;11.50;99.90;;;;;;4995636;28;20054;-65
2022/10/04 06:14:57;;;;;;;19.52;14.85;;;11.40;99.90;;;;;;4971194;28;20052;-64
2022/10/04 06:17:40;;;;;;;21.60;14.30;;;11.50;99.90;;;;;;4985092;28;20093;-65
2022/10/04 06:20:24;;;;;;;17.65;14.05;;;11.40;99.90;;;;;;4977514;28;20042;-64
2022/10/04 06:22:58;;;;;;;20.40;15.02;;;11.40;99.90;;;;;;4986341;28;20060;-65
2022/10/04 06:25:46;;;;;;;22.60;15.18;;;11.40;99.90;;;;;;4980011;28;20081;-65
2022/10/04 06:28:28;;;;;;;21.67;15.20;;;11.40;99.90;;;;;;4986561;28;20130;-64
2022/10/04 06:31:18;;;;;;;18.65;14.48;;;11.40;99.90;;;;;;4997604;28;20115;-65
2022/10/04 06:33:55;;;;;;;;;;;11.30;99.90;;;;;;4972766;28;20093;-65
2022/10/04 06:36:32;;;;;;;20.05;15.57;;;11.30;99.90;;;;;;4995137;28;19936;-65
2022/10/04 06:39:33;;;;;;;22.05;15.68;;;11.30;99.90;;;;;;4988149;28;20186;-65
2022/10/04 06:42:02;;;;;;;20.13;15.80;;;11.30;99.90;;;;;;4985519;28;20057;-65
2022/10/04 06:44:50;;;;;;;20.08;15.15;;;11.30;99.90;;;;;;5030484;28;20049;-65
2022/10/04 06:47:24;;;;;;;20.38;14.90;;;11.40;99.90;;;;;;5028988;28;20080;-65
2022/10/04 06:50:27;;;;;;;25.10;16.10;;;11.40;99.90;;;;;;5034573;28;20057;-73
2022/10/04 06:53:14;;;;;;;19.75;15.73;;;11.50;99.90;;;;;;5025506;28;20068;-69
2022/10/04 06:56:04;;;;;;;19.23;16.10;;;11.50;99.90;;;;;;5026575;28;20053;-70
2022/10/04 06:58:44;;;;;;;24.73;15.80;;;11.40;99.90;;;;;;5024786;28;20068;-70
2022/10/04 07:01:18;;;;;;;23.02;16.20;;;11.50;99.90;;;;;;5035171;28;20041;-70
2022/10/04 07:04:12;;;;;;;20.95;15.13;;;11.50;99.90;;;;;;5029497;28;20051;-70
2022/10/04 07:07:22;;;;;;;23.23;14.60;;;11.60;99.90;;;;;;5035984;28;20107;-70
2022/10/04 07:09:45;;;;;;;22.90;16.52;;;11.60;99.90;;;;;;5002291;28;20049;-69
2022/10/04 07:12:15;;;;;;;23.27;15.38;;;11.70;99.90;;;;;;5028071;28;20076;-70
2022/10/04 07:14:45;;;;;;;;;;;11.70;99.90;;;;;;5031660;28;20057;-70
2022/10/04 07:17:19;;;;;;;23.40;16.67;;;11.80;99.90;;;;;;5028150;28;19925;-70
2022/10/04 07:19:47;;;;;;;20.67;14.48;;;11.80;99.90;;;;;;5033678;28;20045;-70
2022/10/04 07:22:25;;;;;;;17.80;13.55;;;11.90;99.90;;;;;;5030410;28;20048;-70
2022/10/04 07:25:19;;;;;;;20.73;15.30;;;12.00;99.90;;;;;;5038007;28;20049;-69
2022/10/04 07:31:02;;;;;;;19.08;14.48;;;12.10;99.90;;;;;;5044425;28;20068;-69
2022/10/04 07:33:34;;;;;;;20.30;14.15;;;12.20;99.90;;;;;;5037094;28;20052;-70
2022/10/04 07:36:11;;;;;;;20.38;14.68;;;12.20;99.90;;;;;;5041410;28;20087;-70
2022/10/04 07:38:47;;;;;;;18.23;13.73;;;12.30;99.90;;;;;;5043670;28;20087;-69
2022/10/04 07:41:25;;;;;;;22.23;15.25;;;12.40;99.90;;;;;;5012087;28;20053;-70
2022/10/04 07:43:58;;;;;;;21.48;14.45;;;12.50;99.90;;;;;;5033267;28;20060;-70
2022/10/04 07:46:41;;;;;;;18.15;14.55;;;12.60;99.90;;;;;;5035626;28;20573;-69
2022/10/04 07:49:19;;;;;;;20.63;14.88;;;12.60;99.90;;;;;;5029387;28;20053;-70
2022/10/04 07:51:55;;;;;;;22.38;14.20;;;12.70;99.90;;;;;;5043111;28;20141;-71
2022/10/04 07:54:40;;;;;;;23.52;14.20;;;12.80;99.90;;;;;;5030959;28;20099;-70
2022/10/04 07:57:28;;;;;;;20.20;14.40;;;12.90;99.90;;;;;;5034748;28;20461;-69
2022/10/04 08:00:19;;;;;;;19.15;13.52;;;12.90;99.90;;;;;;5057553;28;20057;-69
2022/10/04 08:03:03;;;;;;;20.63;14.32;;;13.00;99.90;;;;;;5032453;28;20096;-70
2022/10/04 08:05:58;;;;;;;21.95;13.82;;;13.00;99.90;;;;;;5038919;28;20069;-70
2022/10/04 08:08:27;;;;;;;17.77;12.98;;;13.20;99.90;;;;;;5021877;28;20316;-70
2022/10/04 08:11:20;;;;;;;24.65;15.27;;;13.20;99.90;;;;;;5032945;28;20272;-70
2022/10/04 08:13:57;;;;;;;19.88;14.18;;;13.30;99.90;;;;;;5023034;28;20037;-70
2022/10/04 08:16:43;;;;;;;16.35;12.85;;;13.50;99.90;;;;;;5036286;28;20049;-69
2022/10/04 08:19:42;;;;;;;20.73;12.38;;;13.50;99.90;;;;;;5032247;28;20145;-70
2022/10/04 08:22:21;;;;;;;18.65;12.75;;;13.60;99.90;;;;;;5053722;28;20060;-74
2022/10/04 08:25:05;;;;;;;16.30;12.07;;;13.60;99.90;;;;;;5039760;28;20095;-70
2022/10/04 08:31:00;;;;;;;20.23;11.40;;;13.70;99.90;;;;;;5027991;28;20107;-70
2022/10/04 08:33:53;;;;;;;19.70;12.27;;;13.80;99.90;;;;;;5018311;28;20543;-71
2022/10/04 08:36:45;;;;;;;20.88;11.77;;;13.70;99.90;;;;;;5036330;28;20095;-71
2022/10/04 08:39:55;;;;;;;15.93;11.35;;;13.70;99.90;;;;;;5031997;28;20084;-70
2022/10/04 08:42:41;;;;;;;15.82;10.70;;;13.60;99.90;;;;;;4976511;28;20076;-69
2022/10/04 08:45:26;;;;;;;16.05;10.00;;;13.60;99.90;;;;;;5000244;28;20069;-70
2022/10/04 08:48:37;;;;;;;19.67;9.73;;;13.60;99.90;;;;;;4990589;28;20181;-70
2022/10/04 08:51:21;;;;;;;16.98;10.55;;;13.60;99.90;;;;;;5000546;28;20054;-71
2022/10/04 08:54:26;;;;;;;20.15;10.25;;;13.70;99.90;;;;;;4990538;28;20617;-70
2022/10/04 08:57:11;;;;;;;14.55;9.38;;;13.80;99.90;;;;;;5016839;28;20069;-70
2022/10/04 08:59:44;;;;;;;17.25;10.18;;;13.90;99.90;;;;;;5008047;28;20057;-70
2022/10/04 09:02:30;;;;;;;14.02;9.40;;;14.00;99.90;;;;;;4999764;28;20104;-70
2022/10/04 09:05:18;;;;;;;14.77;8.93;;;14.10;99.90;;;;;;4958032;28;20053;-70
2022/10/04 09:08:10;;;;;;;14.02;9.02;;;14.30;99.90;;;;;;4990530;28;20066;-70
2022/10/04 09:10:55;;;;;;;14.93;8.60;;;14.40;99.90;;;;;;5000583;28;20045;-70
2022/10/04 09:13:32;;;;;;;15.30;9.15;;;14.50;99.90;;;;;;5003136;28;20050;-70
2022/10/04 09:16:16;;;;;;;13.93;7.95;;;14.60;99.90;;;;;;4993198;28;20528;-70
2022/10/04 09:18:50;;;;;;;12.57;8.98;;;14.70;99.90;;;;;;5004049;28;20132;-69
2022/10/04 09:21:42;;;;;;;14.50;9.30;;;14.70;99.90;;;;;;5029749;28;20080;-69
2022/10/04 09:24:29;;;;;;;17.63;8.80;;;14.80;99.90;;;;;;5030255;28;20064;-69
2022/10/04 09:28:02;;;;;;;10.25;7.72;;;14.80;99.90;;;;;;5036998;28;20080;-69
2022/10/04 09:30:36;;;;;;;14.82;9.02;;;14.90;99.90;;;;;;4919439;29;20048;-70
2022/10/04 09:33:46;;;;;;;13.13;8.30;;;14.90;99.90;;;;;;4946833;28;20058;-69
2022/10/04 09:36:26;;;;;;;16.65;7.97;;;14.90;99.90;;;;;;4960086;28;20051;-70
2022/10/04 09:39:04;;;;;;;;;;;14.90;99.90;;;;;;4956198;28;20146;-70
2022/10/04 09:41:51;;;;;;;14.75;9.00;;;14.90;99.90;;;;;;4931146;29;19946;-69
2022/10/04 09:44:47;;;;;;;11.75;8.02;;;15.00;99.90;;;;;;4934532;29;20047;-70
2022/10/04 09:47:36;;;;;;;13.48;9.40;;;15.00;99.90;;;;;;4941840;29;20406;-69
2022/10/04 09:50:46;;;;;;;12.15;8.05;;;15.00;99.90;;;;;;4917717;29;20183;-70
2022/10/04 09:53:46;;;;;;;11.20;7.78;;;15.00;99.90;;;;;;4929308;29;20051;-70
2022/10/04 09:56:44;;;;;;;10.33;8.43;;;15.10;99.90;;;;;;4954636;28;20052;-69
2022/10/04 09:59:21;;;;;;;11.82;8.52;;;15.10;99.90;;;;;;4924638;29;20598;-69
2022/10/04 10:02:08;;;;;;;12.43;8.57;;;15.20;99.90;;;;;;4928745;29;20055;-69
2022/10/04 10:05:04;;;;;;;12.13;8.38;;;15.20;99.90;;;;;;4945713;28;20283;-69
2022/10/04 10:07:52;;;;;;;15.60;9.18;;;15.20;99.90;;;;;;4975611;28;20047;-69
2022/10/04 10:13:41;;;;;;;12.50;8.25;;;15.20;99.90;;;;;;4964666;28;20047;-70
2022/10/04 10:16:21;;;;;;;14.18;8.30;;;15.20;99.90;;;;;;4958233;28;20136;-71
2022/10/04 10:19:11;;;;;;;11.77;8.50;;;15.30;99.90;;;;;;4948804;28;20187;-70
2022/10/04 10:21:54;;;;;;;13.75;9.18;;;15.40;99.90;;;;;;4959280;28;20055;-70
2022/10/04 10:24:38;;;;;;;12.43;7.65;;;15.60;99.90;;;;;;4927447;28;20047;-69
2022/10/04 10:27:26;;;;;;;13.45;8.45;;;15.60;99.90;;;;;;4938951;28;20078;-71
2022/10/04 10:29:54;;;;;;;11.90;7.47;;;15.70;99.90;;;;;;4946335;28;20114;-69
2022/10/04 10:32:55;;;;;;;12.32;7.45;;;15.70;99.90;;;;;;4951223;28;20047;-70
2022/10/04 10:36:01;;;;;;;13.95;7.68;;;15.70;99.90;;;;;;4986740;28;20058;-69
2022/10/04 10:38:38;;;;;;;15.00;7.15;;;15.80;99.90;;;;;;5025603;28;20481;-70
2022/10/04 10:41:22;;;;;;;11.02;6.32;;;15.90;99.90;;;;;;5013867;28;20060;-69
2022/10/04 10:44:17;;;;;;;11.63;7.32;;;16.00;99.90;;;;;;5025098;28;20324;-69
2022/10/04 10:46:57;;;;;;;14.82;6.40;;;16.20;99.90;;;;;;5031525;28;20050;-70
2022/10/04 10:49:38;;;;;;;11.25;6.65;;;16.20;99.90;;;;;;5016082;28;20104;-68
2022/10/04 10:52:09;;;;;;;13.25;6.20;;;16.20;99.90;;;;;;5034997;28;20453;-67
2022/10/04 10:55:06;;;;;;;10.32;7.00;;;16.30;99.90;;;;;;5020786;28;20064;-68
2022/10/04 10:57:41;;;;;;;10.80;6.95;;;16.20;99.90;;;;;;5034545;28;20041;-67
2022/10/04 11:00:18;;;;;;;10.70;6.63;;;16.20;99.90;;;;;;4994814;28;20053;-67
2022/10/04 11:03:15;;;;;;;10.30;6.35;;;16.20;99.90;;;;;;5029215;28;20048;-68
2022/10/04 11:06:00;;;;;;;9.73;6.63;;;16.20;99.90;;;;;;5008514;28;20045;-68
2022/10/04 11:08:28;;;;;;;11.63;6.90;;;16.20;99.90;;;;;;5031550;28;20059;-69
2022/10/04 11:10:58;;;;;;;9.75;6.45;;;16.20;99.90;;;;;;5028964;28;20050;-68
2022/10/04 11:13:25;;;;;;;;;;;16.30;99.90;;;;;;5023715;28;20121;-68
2022/10/04 11:16:10;;;;;;;10.80;6.80;;;16.20;99.90;;;;;;5034786;28;19972;-68
2022/10/04 11:19:14;;;;;;;7.07;6.10;;;16.20;99.90;;;;;;5031819;28;20061;-68
2022/10/04 11:22:15;;;;;;;8.68;6.50;;;16.30;99.90;;;;;;5024227;28;20053;-68
2022/10/04 11:24:58;;;;;;;8.85;5.90;;;16.50;99.90;;;;;;5039320;28;20711;-68
2022/10/04 11:27:30;;;;;;;10.50;5.97;;;16.50;99.90;;;;;;5028275;28;20053;-68
2022/10/04 11:30:23;;;;;;;10.02;5.60;;;16.60;99.90;;;;;;5023072;28;20123;-68
2022/10/04 11:33:28;;;;;;;10.25;6.68;;;16.80;99.90;;;;;;5036150;28;20057;-68
2022/10/04 11:36:25;;;;;;;11.82;6.65;;;16.90;99.90;;;;;;5002482;28;20358;-67
2022/10/04 11:39:05;;;;;;;9.63;5.50;;;16.90;99.90;;;;;;5014417;28;20049;-68
2022/10/04 11:42:16;;;;;;;10.82;6.35;;;16.90;99.90;;;;;;5020338;28;20057;-68
2022/10/04 11:45:21;;;;;;;7.93;5.25;;;17.00;99.90;;;;;;5041746;28;20449;-67
2022/10/04 11:48:20;;;;;;;11.48;5.95;;;17.10;99.90;;;;;;5027900;28;20067;-67
2022/10/04 11:50:59;;;;;;;9.82;6.03;;;17.20;99.90;;;;;;5019288;28;20033;-68
2022/10/04 11:53:51;;;;;;;8.50;5.50;;;17.30;99.90;;;;;;5024870;28;20059;-68
2022/10/04 11:56:28;;;;;;;9.45;4.53;;;17.50;99.90;;;;;;5028220;28;20057;-68
2022/10/04 11:59:19;;;;;;;7.85;4.72;;;17.70;99.90;;;;;;5024431;28;20053;-67
2022/10/04 12:02:17;;;;;;;8.18;4.75;;;17.70;99.90;;;;;;5028253;28;20080;-68
2022/10/04 12:05:05;;;;;;;10.45;4.97;;;17.70;99.90;;;;;;4969931;28;20564;-68
2022/10/04 12:07:49;;;;;;;6.97;4.75;;;17.70;99.90;;;;;;5007698;28;20117;-68
2022/10/04 12:10:35;;;;;;;8.63;4.00;;;17.70;99.90;;;;;;5019341;28;20073;-68
2022/10/04 12:13:31;;;;;;;6.18;3.13;;;17.70;99.90;;;;;;5039862;28;20053;-68
2022/10/04 12:16:11;;;;;;;5.50;3.55;;;17.80;99.90;;;;;;5024285;28;20530;-68
2022/10/04 12:18:45;;;;;;;7.50;3.30;;;18.00;99.90;;;;;;5025224;28;20077;-68
2022/10/04 12:21:27;;;;;;;7.97;3.25;;;18.30;99.90;;;;;;5020096;28;20075;-67
2022/10/04 12:24:18;;;;;;;5.28;3.40;;;18.50;99.90;;;;;;5048705;28;20104;-68
2022/10/04 12:27:01;;;;;;;6.32;3.65;;;18.70;99.90;;;;;;5033146;28;20052;-67
2022/10/04 12:29:51;;;;;;;8.15;3.75;;;19.10;99.90;;;;;;5034237;28;20397;-68
2022/10/04 12:32:18;;;;;;;;;;;19.80;99.90;;;;;;5016265;28;20050;-68
2022/10/04 12:35:13;;;;;;;7.38;3.60;;;19.70;99.90;;;;;;5020797;28;19996;-67
2022/10/04 12:37:51;;;;;;;7.97;3.75;;;20.20;99.90;;;;;;5041050;28;20058;-67
2022/10/04 12:40:22;;;;;;;8.85;3.80;;;19.90;99.90;;;;;;5033577;28;20059;-67
2022/10/04 12:43:05;;;;;;;8.60;4.07;;;19.90;99.90;;;;;;5039591;28;20526;-68
2022/10/04 12:45:42;;;;;;;6.43;4.25;;;20.40;99.90;;;;;;5039691;28;20063;-68
2022/10/04 12:48:22;;;;;;;6.72;4.25;;;20.30;99.90;;;;;;5033054;28;20052;-67
2022/10/04 12:51:14;;;;;;;7.82;3.90;;;20.20;99.90;;;;;;5034373;28;20057;-68
2022/10/04 12:54:12;;;;;;;6.90;4.05;;;20.30;99.90;;;;;;5033667;28;20073;-68
2022/10/04 12:56:56;;;;;;;7.20;4.88;;;20.80;99.90;;;;;;4988391;28;20060;-68
2022/10/04 12:59:24;;;;;;;7.22;3.78;;;21.50;99.90;;;;;;4981249;28;20598;-68
2022/10/04 13:02:00;;;;;;;7.85;5.28;;;22.10;99.90;;;;;;4973734;28;20050;-67
2022/10/04 13:04:47;;;;;;;7.22;4.38;;;22.70;99.90;;;;;;4962007;28;20065;-67
2022/10/04 13:07:35;;;;;;;6.65;3.95;;;23.70;99.90;;;;;;4988751;28;20049;-67
2022/10/04 13:10:10;;;;;;;7.38;3.28;;;24.30;99.90;;;;;;4990655;28;20102;-68
2022/10/04 13:13:12;;;;;;;7.38;3.47;;;24.90;99.30;;;;;;4999923;28;20058;-68
2022/10/04 13:16:01;;;;;;;6.68;3.67;;;25.00;96.90;;;;;;4978744;28;20097;-68
2022/10/04 13:19:05;;;;;;;;;;;24.70;97.50;;;;;;4976601;28;20122;-69
2022/10/04 13:21:54;;;;;;;7.80;3.90;;;24.60;97.30;;;;;;4936119;28;20005;-69
2022/10/04 13:24:55;;;;;;;7.55;4.50;;;23.40;98.50;;;;;;4977230;28;20138;-68
2022/10/04 13:27:43;;;;;;;7.90;4.35;;;22.70;99.60;;;;;;4916769;29;20055;-68
2022/10/04 13:30:17;;;;;;;7.85;4.38;;;22.10;99.80;;;;;;4936240;28;20046;-68
2022/10/04 13:32:50;;;;;;;8.25;4.53;;;22.10;99.90;;;;;;4983508;28;20053;-68
2022/10/04 13:35:40;;;;;;;8.38;5.20;;;22.30;99.90;;;;;;4970877;28;20089;-68
2022/10/04 13:38:26;;;;;;;7.47;4.28;;;23.00;99.50;;;;;;4977658;28;20050;-68
2022/10/04 13:41:19;;;;;;;6.97;4.10;;;23.50;99.50;;;;;;4972284;28;20070;-68
2022/10/04 13:43:57;;;;;;;8.25;4.45;;;23.90;99.00;;;;;;4982848;28;20042;-68
2022/10/04 13:46:57;;;;;;;10.73;4.13;;;23.60;99.30;;;;;;4959544;28;20054;-67
2022/10/04 13:49:26;;;;;;;6.45;4.05;;;23.50;98.60;;;;;;4980683;28;20054;-67
2022/10/04 13:58:32;;;;;;;7.78;4.25;;;21.30;99.90;;;;;;5003430;28;20089;-67
2022/10/04 14:01:22;;;;;;;8.05;4.35;;;20.80;99.90;;;;;;4990728;28;20054;-67
2022/10/04 14:04:05;;;;;;;8.02;4.55;;;20.70;99.90;;;;;;4989541;28;20148;-68